Time;durP1;ratioP1;P1;durP2;ratioP2;P2;SDS_P1;SDS_P2;PMS_P1;PMS_P2;Temp;Humidity;BMP_temperature;BMP_pressure;BME280_temperature;BME280_humidity;BME280_pressure;Samples;Min_cycle;Max_cycle;Signal;HPM_P1;HPM_P2
2022/12/31 00:00:05;;;;;;;;;;;14.90;99.90;;;;;;5058665;28;19913;-78
2022/12/31 00:02:30;;;;;;;;;;;14.90;99.90;;;;;;5058368;28;20271;-78
2022/12/31 00:04:56;;;;;;;;;;;14.90;99.90;;;;;;5059343;28;19916;-79
2022/12/31 00:07:21;;;;;;;;;;;14.80;99.90;;;;;;5059089;28;19919;-78
2022/12/31 00:09:47;;;;;;;;;;;14.80;99.90;;;;;;5058771;28;20007;-78
2022/12/31 00:12:12;;;;;;;;;;;14.80;99.90;;;;;;5058691;28;19919;-80
2022/12/31 00:14:38;;;;;;;;;;;14.70;99.90;;;;;;5057895;28;19915;-75
2022/12/31 00:17:03;;;;;;;;;;;14.60;99.90;;;;;;5056809;28;19909;-76
2022/12/31 00:19:29;;;;;;;;;;;14.60;99.90;;;;;;5055748;28;20267;-75
2022/12/31 00:21:54;;;;;;;;;;;14.60;99.90;;;;;;5037971;28;19955;-75
2022/12/31 00:24:19;;;;;;;;;;;14.60;99.90;;;;;;5055811;28;20454;-76
2022/12/31 00:26:45;;;;;;;;;;;14.60;99.90;;;;;;5056734;28;19915;-75
2022/12/31 00:29:11;;;;;;;;;;;14.60;99.90;;;;;;5056063;28;19935;-77
2022/12/31 00:31:37;;;;;;;;;;;14.60;99.90;;;;;;5054844;28;19909;-75
2022/12/31 00:34:03;;;;;;;;;;;14.60;99.90;;;;;;5057014;28;20366;-79
2022/12/31 00:36:29;;;;;;;;;;;14.60;99.90;;;;;;5039385;28;19919;-77
2022/12/31 00:38:56;;;;;;;;;;;14.60;99.90;;;;;;5069631;28;19913;-79
2022/12/31 00:41:22;;;;;;;;;;;14.60;99.90;;;;;;5054565;28;19916;-79
2022/12/31 00:43:47;;;;;;;;;;;14.60;99.90;;;;;;5056897;28;19917;-79
2022/12/31 00:46:13;;;;;;;;;;;14.60;99.90;;;;;;5057314;28;20416;-77
2022/12/31 00:48:38;;;;;;;;;;;14.40;99.90;;;;;;5039338;28;19913;-78
2022/12/31 00:51:06;;;;;;;;;;;14.30;99.90;;;;;;5056878;28;19909;-77
2022/12/31 00:53:31;;;;;;;;;;;14.20;99.90;;;;;;5055816;28;19931;-78
2022/12/31 00:56:00;;;;;;;;;;;14.10;99.90;;;;;;5057474;28;19908;-78
2022/12/31 00:58:26;;;;;;;;;;;14.10;99.90;;;;;;5057498;28;20330;-77
2022/12/31 01:00:52;;;;;;;;;;;14.00;99.90;;;;;;5056789;28;19971;-80
2022/12/31 01:03:18;;;;;;;;;;;14.00;99.90;;;;;;5056866;28;19970;-78
2022/12/31 01:05:44;;;;;;;;;;;14.00;99.90;;;;;;5038746;28;20007;-77
2022/12/31 01:08:09;;;;;;;;;;;14.00;99.90;;;;;;5056522;28;19920;-77
2022/12/31 01:13:19;;;;;;;;;;;14.10;99.90;;;;;;5056905;28;19936;-77
2022/12/31 01:15:44;;;;;;;;;;;14.10;99.90;;;;;;5056756;28;19913;-77
2022/12/31 01:18:10;;;;;;;;;;;14.10;99.90;;;;;;5056806;28;19909;-78
2022/12/31 01:20:40;;;;;;;;;;;14.20;99.90;;;;;;5057022;28;19913;-77
2022/12/31 01:23:07;;;;;;;;;;;14.20;99.90;;;;;;5038757;28;20330;-79
2022/12/31 01:25:36;;;;;;;;;;;14.20;99.90;;;;;;5038903;28;19909;-78
2022/12/31 01:28:02;;;;;;;;;;;14.30;99.90;;;;;;5038913;28;20000;-77
2022/12/31 01:30:28;;;;;;;;;;;14.40;99.90;;;;;;5056630;28;19955;-77
2022/12/31 01:32:53;;;;;;;;;;;14.50;99.90;;;;;;5056425;28;19908;-77
2022/12/31 01:35:19;;;;;;;;;;;14.60;99.90;;;;;;5038802;28;19919;-77
2022/12/31 01:37:44;;;;;;;;;;;14.70;99.90;;;;;;5056872;28;19944;-78
2022/12/31 01:40:10;;;;;;;;;;;14.80;99.90;;;;;;5056985;28;20361;-77
2022/12/31 01:42:36;;;;;;;;;;;14.90;99.90;;;;;;5056740;28;19909;-77
2022/12/31 01:45:01;;;;;;;;;;;14.90;99.90;;;;;;5038310;28;19909;-80
2022/12/31 01:47:31;;;;;;;;;;;15.00;99.90;;;;;;5071655;28;19944;-82
2022/12/31 01:50:00;;;;;;;;;;;15.10;99.90;;;;;;5079469;28;19916;-80
2022/12/31 01:52:46;;;;;;;;;;;15.30;99.90;;;;;;5059437;28;19909;-83
2022/12/31 01:55:22;;;;;;;;;;;15.40;99.90;;;;;;5040929;28;19915;-83
2022/12/31 01:57:49;;;;;;;;;;;15.40;99.90;;;;;;5058242;28;20374;-82
2022/12/31 02:00:14;;;;;;;;;;;15.50;99.90;;;;;;5057878;28;19912;-83
2022/12/31 02:02:40;;;;;;;;;;;15.50;99.90;;;;;;5057556;28;20339;-83
2022/12/31 02:05:11;;;;;;;;;;;15.60;99.90;;;;;;5057742;28;19948;-82
2022/12/31 02:07:37;;;;;;;;;;;15.70;99.90;;;;;;5039880;28;19909;-83
2022/12/31 02:10:03;;;;;;;;;;;15.70;99.90;;;;;;5057827;28;19962;-83
2022/12/31 02:12:28;;;;;;;;;;;15.80;99.90;;;;;;5056812;28;19925;-83
2022/12/31 02:14:54;;;;;;;;;;;15.80;99.90;;;;;;5039388;28;19908;-83
2022/12/31 02:17:32;;;;;;;;;;;15.80;99.90;;;;;;5056807;28;19915;-83
2022/12/31 02:20:16;;;;;;;;;;;15.90;99.90;;;;;;5038685;28;19988;-81
2022/12/31 02:22:54;;;;;;;;;;;15.90;99.90;;;;;;5055120;28;19909;-82
2022/12/31 02:25:31;;;;;;;;;;;15.90;99.90;;;;;;5056814;28;20278;-82
2022/12/31 02:28:07;;;;;;;;;;;15.90;99.90;;;;;;5056683;28;20286;-82
2022/12/31 02:30:33;;;;;;;;;;;16.00;99.90;;;;;;5055470;28;19909;-83
2022/12/31 02:33:12;;;;;;;;;;;16.10;99.90;;;;;;5056007;28;19955;-81
2022/12/31 02:35:37;;;;;;;;;;;16.20;99.90;;;;;;5056473;28;19955;-83
2022/12/31 02:38:04;;;;;;;;;;;16.30;99.90;;;;;;5056077;28;20310;-83
2022/12/31 02:40:32;;;;;;;;;;;16.20;99.90;;;;;;5038455;28;19920;-83
2022/12/31 02:42:57;;;;;;;;;;;16.30;99.90;;;;;;5037531;28;19909;-82
2022/12/31 02:45:27;;;;;;;;;;;16.40;99.90;;;;;;5038426;28;20357;-82
2022/12/31 02:48:12;;;;;;;;;;;16.50;99.90;;;;;;5056593;28;19909;-81
2022/12/31 02:50:56;;;;;;;;;;;16.50;99.90;;;;;;5026732;28;19912;-82
2022/12/31 02:53:25;;;;;;;;;;;16.50;99.90;;;;;;5055853;28;19920;-79
2022/12/31 02:55:56;;;;;;;;;;;16.60;99.90;;;;;;5054099;28;19909;-82
2022/12/31 03:02:12;;;;;;;;;;;16.70;99.90;;;;;;5037600;28;20386;-83
2022/12/31 03:04:30;;;;;;;;;;;16.80;99.90;;;;;;5055419;28;19916;-83
2022/12/31 03:06:49;;;;;;;;;;;16.90;99.90;;;;;;5055206;28;20428;-83
2022/12/31 03:09:14;;;;;;;;;;;16.90;99.90;;;;;;5054841;28;19909;-83
2022/12/31 03:14:24;;;;;;;;;;;17.00;99.90;;;;;;5055256;28;19936;-82
2022/12/31 03:16:49;;;;;;;;;;;16.90;99.90;;;;;;5075914;22;19928;-82
2022/12/31 03:27:42;;;;;;;;;;;17.00;99.90;;;;;;5075811;28;20272;-84
2022/12/31 03:30:08;;;;;;;;;;;17.00;99.90;;;;;;5075441;28;19940;-86
2022/12/31 03:32:33;;;;;;;;;;;17.10;99.90;;;;;;5074926;28;19916;-84
2022/12/31 03:34:59;;;;;;;;;;;17.10;99.90;;;;;;5057351;28;19919;-83
2022/12/31 03:37:24;;;;;;;;;;;17.10;99.90;;;;;;5057269;28;19915;-84
2022/12/31 03:39:49;;;;;;;;;;;17.00;99.90;;;;;;5057189;28;19912;-82
2022/12/31 03:42:15;;;;;;;;;;;17.00;99.90;;;;;;5056423;28;19909;-81
2022/12/31 03:44:40;;;;;;;;;;;17.00;99.90;;;;;;5056192;28;19909;-81
2022/12/31 03:47:06;;;;;;;;;;;17.00;99.90;;;;;;5056026;28;19908;-81
2022/12/31 03:49:31;;;;;;;;;;;17.00;99.90;;;;;;5055568;28;19913;-81
2022/12/31 03:51:57;;;;;;;;;;;17.00;99.90;;;;;;5055971;28;20366;-80
2022/12/31 03:54:22;;;;;;;;;;;16.90;99.90;;;;;;5056143;28;19909;-82
2022/12/31 03:56:48;;;;;;;;;;;16.80;99.90;;;;;;5075217;28;19918;-83
2022/12/31 03:59:13;;;;;;;;;;;16.80;99.90;;;;;;5075169;28;19909;-84
2022/12/31 04:01:39;;;;;;;;;;;16.80;99.90;;;;;;5056020;28;19962;-82
2022/12/31 04:04:04;;;;;;;;;;;16.90;99.90;;;;;;5056295;28;19908;-85
2022/12/31 04:06:29;;;;;;;;;;;16.90;99.90;;;;;;5056768;28;19908;-83
2022/12/31 04:08:55;;;;;;;;;;;16.90;99.90;;;;;;5060484;28;19908;-83
2022/12/31 04:11:20;;;;;;;;;;;17.00;99.90;;;;;;5059916;28;19944;-84
2022/12/31 04:13:46;;;;;;;;;;;17.00;99.90;;;;;;5078110;28;19912;-83
2022/12/31 04:16:11;;;;;;;;;;;17.10;99.90;;;;;;5059654;28;20007;-85
2022/12/31 04:18:37;;;;;;;;;;;17.10;99.90;;;;;;5059528;28;20350;-83
2022/12/31 04:21:03;;;;;;;;;;;17.10;99.90;;;;;;5059285;28;19916;-84
2022/12/31 04:23:28;;;;;;;;;;;17.10;99.90;;;;;;5077933;28;19909;-84
2022/12/31 04:25:54;;;;;;;;;;;17.10;99.90;;;;;;5059648;28;19994;-83
2022/12/31 04:28:19;;;;;;;;;;;17.20;99.90;;;;;;5078335;28;19916;-82
2022/12/31 04:30:45;;;;;;;;;;;17.20;99.90;;;;;;5077542;28;20022;-83
2022/12/31 04:33:10;;;;;;;;;;;17.20;99.90;;;;;;5076492;28;19956;-84
2022/12/31 04:35:36;;;;;;;;;;;17.20;99.90;;;;;;5058549;28;19971;-83
2022/12/31 04:38:01;;;;;;;;;;;17.20;99.90;;;;;;5059128;28;19908;-85
2022/12/31 04:40:26;;;;;;;;;;;17.20;99.90;;;;;;5077344;28;20549;-83
2022/12/31 04:42:52;;;;;;;;;;;17.20;99.90;;;;;;5058254;28;19920;-82
2022/12/31 04:45:17;;;;;;;;;;;17.20;99.90;;;;;;5058368;28;20031;-82
2022/12/31 04:47:43;;;;;;;;;;;17.20;99.90;;;;;;5076419;28;19908;-81
2022/12/31 04:50:08;;;;;;;;;;;17.30;99.90;;;;;;5058362;28;20282;-81
2022/12/31 04:52:34;;;;;;;;;;;17.30;99.90;;;;;;5058150;28;20429;-81
2022/12/31 04:54:59;;;;;;;;;;;17.30;99.90;;;;;;5058533;28;19909;-81
2022/12/31 04:57:25;;;;;;;;;;;17.30;99.90;;;;;;5076330;28;20385;-81
2022/12/31 04:59:50;;;;;;;;;;;17.30;99.90;;;;;;5057577;28;19935;-81
2022/12/31 05:02:15;;;;;;;;;;;17.30;99.90;;;;;;5057666;28;19909;-81
2022/12/31 05:04:41;;;;;;;;;;;17.30;99.90;;;;;;5057795;28;20396;-81
2022/12/31 05:07:06;;;;;;;;;;;17.30;99.90;;;;;;5057489;28;19970;-81
2022/12/31 05:09:32;;;;;;;;;;;17.30;99.90;;;;;;5057837;28;19909;-81
2022/12/31 05:11:57;;;;;;;;;;;17.40;99.90;;;;;;5075532;28;19915;-81
2022/12/31 05:14:23;;;;;;;;;;;17.40;99.90;;;;;;5075788;28;19915;-81
2022/12/31 05:16:49;;;;;;;;;;;17.40;99.90;;;;;;5057496;28;19960;-81
2022/12/31 05:19:14;;;;;;;;;;;17.40;99.90;;;;;;5057435;28;19924;-81
2022/12/31 05:21:40;;;;;;;;;;;17.40;99.90;;;;;;5056972;28;20404;-83
2022/12/31 05:24:06;;;;;;;;;;;17.30;99.90;;;;;;5075408;28;19916;-84
2022/12/31 05:26:31;;;;;;;;;;;17.30;99.90;;;;;;5075130;28;19948;-84
2022/12/31 05:28:59;;;;;;;;;;;17.30;99.90;;;;;;5075719;28;19909;-83
2022/12/31 05:31:24;;;;;;;;;;;17.40;99.90;;;;;;5075547;28;20000;-84
2022/12/31 05:33:50;;;;;;;;;;;17.30;99.90;;;;;;5074127;28;19948;-84
2022/12/31 05:36:15;;;;;;;;;;;17.40;99.90;;;;;;5056806;28;19947;-83
2022/12/31 05:38:41;;;;;;;;;;;17.40;99.90;;;;;;5056880;28;19915;-80
2022/12/31 05:41:06;;;;;;;;;;;17.40;99.90;;;;;;5057029;28;19927;-85
2022/12/31 05:43:32;;;;;;;;;;;17.30;99.90;;;;;;5057019;28;20316;-82
2022/12/31 05:46:01;;;;;;;;;;;17.40;99.90;;;;;;5056995;28;19908;-82
2022/12/31 05:48:27;;;;;;;;;;;17.40;99.90;;;;;;5074585;28;19909;-83
2022/12/31 05:50:52;;;;;;;;;;;17.40;99.90;;;;;;5074583;28;19915;-83
2022/12/31 05:53:18;;;;;;;;;;;17.40;99.90;;;;;;5074113;28;20381;-83
2022/12/31 05:55:44;;;;;;;;;;;17.40;99.90;;;;;;5074604;28;19909;-83
2022/12/31 05:58:10;;;;;;;;;;;17.40;99.90;;;;;;5056251;28;20332;-84
2022/12/31 06:00:35;;;;;;;;;;;17.30;99.90;;;;;;5056390;28;19962;-83
2022/12/31 06:03:00;;;;;;;;;;;17.40;99.90;;;;;;5055995;28;20296;-83
2022/12/31 06:05:26;;;;;;;;;;;17.40;99.90;;;;;;5056309;28;19909;-82
2022/12/31 06:07:51;;;;;;;;;;;17.40;99.90;;;;;;5056406;28;19908;-84
2022/12/31 06:10:17;;;;;;;;;;;17.40;99.90;;;;;;5056046;28;20515;-84
2022/12/31 06:12:42;;;;;;;;;;;17.40;99.90;;;;;;5074289;28;19908;-82
2022/12/31 06:15:09;;;;;;;;;;;17.40;99.90;;;;;;5057332;28;19909;-83
2022/12/31 06:17:34;;;;;;;;;;;17.50;99.90;;;;;;5061383;28;19928;-83
2022/12/31 06:19:59;;;;;;;;;;;17.50;99.90;;;;;;5061300;28;19935;-85
2022/12/31 06:22:25;;;;;;;;;;;17.50;99.90;;;;;;5060696;28;20020;-85
2022/12/31 06:24:50;;;;;;;;;;;17.50;99.90;;;;;;5060616;28;19909;-83
2022/12/31 06:27:16;;;;;;;;;;;17.60;99.90;;;;;;5060791;28;19916;-85
2022/12/31 06:29:41;;;;;;;;;;;17.60;99.90;;;;;;5078149;28;20530;-84
2022/12/31 06:32:07;;;;;;;;;;;17.60;99.90;;;;;;5059979;28;19915;-84
2022/12/31 06:34:32;;;;;;;;;;;17.60;99.90;;;;;;5078985;28;19954;-82
2022/12/31 06:36:58;;;;;;;;;;;17.70;99.90;;;;;;5060561;28;20362;-85
2022/12/31 06:39:23;;;;;;;;;;;17.70;99.90;;;;;;5060499;28;19912;-85
2022/12/31 06:41:49;;;;;;;;;;;17.70;99.90;;;;;;5059603;28;20301;-84
2022/12/31 06:44:14;;;;;;;;;;;17.70;99.90;;;;;;5059621;28;20370;-85
2022/12/31 06:46:40;;;;;;;;;;;17.70;99.90;;;;;;5059579;28;19948;-84
2022/12/31 06:49:05;;;;;;;;;;;17.60;99.90;;;;;;5059225;28;19919;-82
2022/12/31 06:51:31;;;;;;;;;;;17.60;99.90;;;;;;5059350;28;19908;-83
2022/12/31 06:53:56;;;;;;;;;;;17.70;99.90;;;;;;5059412;28;20336;-83
2022/12/31 06:56:24;;;;;;;;;;;17.70;99.90;;;;;;5058149;28;20350;-83
2022/12/31 06:58:50;;;;;;;;;;;17.70;99.90;;;;;;5076639;28;19913;-82
2022/12/31 07:01:25;;;;;;;;;;;17.70;99.90;;;;;;5075699;28;20327;-82
2022/12/31 07:03:57;;;;;;;;;;;17.70;99.90;;;;;;5057861;28;20413;-83
2022/12/31 07:06:28;;;;;;;;;;;17.70;99.90;;;;;;5075951;28;20385;-83
2022/12/31 07:09:09;;;;;;;;;;;17.70;99.90;;;;;;5058030;28;19913;-82
2022/12/31 07:11:40;;;;;;;;;;;17.70;99.90;;;;;;5075612;28;19951;-83
2022/12/31 07:14:08;;;;;;;;;;;17.70;99.90;;;;;;5075757;28;19915;-84
2022/12/31 07:16:43;;;;;;;;;;;17.70;99.90;;;;;;5075142;28;19916;-83
2022/12/31 07:19:15;;;;;;;;;;;17.80;99.90;;;;;;5056404;28;19919;-85
2022/12/31 07:21:42;;;;;;;;;;;17.80;99.90;;;;;;5056619;28;19915;-84
2022/12/31 07:24:08;;;;;;;;;;;17.90;99.90;;;;;;5075100;28;19908;-83
2022/12/31 07:26:40;;;;;;;;;;;17.80;99.90;;;;;;5074058;28;19956;-83
2022/12/31 07:29:28;;;;;;;;;;;17.80;99.90;;;;;;5056898;28;19908;-83
2022/12/31 07:31:57;;;;;;;;;;;17.80;99.90;;;;;;5075114;28;20451;-82
2022/12/31 07:34:31;;;;;;;;;;;17.90;99.90;;;;;;5074917;28;19908;-83
2022/12/31 07:37:11;;;;;;;;;;;17.90;99.90;;;;;;5056735;28;19908;-83
2022/12/31 07:39:40;;;;;;;;;;;17.90;99.90;;;;;;5074934;28;19912;-82
2022/12/31 07:42:05;;;;;;;;;;;18.00;99.90;;;;;;5074300;28;19916;-82
2022/12/31 07:44:43;;;;;;;;;;;17.90;99.90;;;;;;5060139;28;20277;-82
2022/12/31 07:47:35;;;;;;;;;;;18.00;99.90;;;;;;5078580;28;19916;-82
2022/12/31 07:50:00;;;;;;;;;;;18.00;99.90;;;;;;5058689;28;20317;-81
2022/12/31 07:52:26;;;;;;;;;;;18.00;99.90;;;;;;5076671;28;19909;-83
2022/12/31 07:54:51;;;;;;;;;;;18.00;99.90;;;;;;5060263;28;19943;-81
2022/12/31 07:57:18;;;;;;;;;;;17.90;99.90;;;;;;5077418;28;19909;-82
2022/12/31 07:59:51;;;;;;;;;;;18.00;99.90;;;;;;5075738;28;19913;-82
2022/12/31 08:02:29;;;;;;;;;;;17.90;99.90;;;;;;5078079;28;20360;-81
2022/12/31 08:04:54;;;;;;;;;;;18.00;99.90;;;;;;5060456;28;19931;-81
2022/12/31 08:07:29;;;;;;;;;;;18.00;99.90;;;;;;5060070;28;20680;-81
2022/12/31 08:10:01;;;;;;;;;;;18.00;99.90;;;;;;5077907;28;19957;-81
2022/12/31 08:12:29;;;;;;;;;;;18.10;99.90;;;;;;5059427;28;20350;-81
2022/12/31 08:14:55;;;;;;;;;;;18.00;99.90;;;;;;5077478;28;19974;-81
2022/12/31 08:17:21;;;;;;;;;;;18.10;99.90;;;;;;5059504;28;19916;-81
2022/12/31 08:19:46;;;;;;;;;;;18.10;99.90;;;;;;5076354;28;19916;-81
2022/12/31 08:22:12;;;;;;;;;;;18.10;99.90;;;;;;5076845;28;19908;-80
2022/12/31 08:24:43;;;;;;;;;;;18.10;99.90;;;;;;5058631;28;20389;-80
2022/12/31 08:27:27;;;;;;;;;;;18.10;99.90;;;;;;5075037;28;19912;-80
2022/12/31 08:30:06;;;;;;;;;;;18.10;99.90;;;;;;5077653;28;19909;-81
2022/12/31 08:32:37;;;;;;;;;;;18.10;99.90;;;;;;5059878;28;19908;-80
2022/12/31 08:35:21;;;;;;;;;;;18.10;99.90;;;;;;5078227;28;19934;-81
2022/12/31 08:37:50;;;;;;;;;;;18.10;99.90;;;;;;5057874;28;19928;-80
2022/12/31 08:40:15;;;;;;;;;;;18.20;99.90;;;;;;5039717;28;19913;-80
2022/12/31 08:42:47;;;;;;;;;;;18.20;99.90;;;;;;5039060;28;19916;-80
2022/12/31 08:45:23;;;;;;;;;;;18.30;99.90;;;;;;5039338;28;19912;-81
2022/12/31 08:47:55;;;;;;;;;;;18.30;99.90;;;;;;5040437;28;19921;-81
2022/12/31 08:50:21;;;;;;;;;;;18.40;99.90;;;;;;5058610;28;19908;-80
2022/12/31 08:52:46;;;;;;;;;;;18.40;99.90;;;;;;5039119;28;19912;-81
2022/12/31 08:55:16;;;;;;;;;;;18.40;99.90;;;;;;5038295;28;20306;-82
2022/12/31 08:57:48;;;;;;;;;;;18.50;99.90;;;;;;5038270;28;19958;-82
2022/12/31 09:00:17;;;;;;;;;;;18.50;99.90;;;;;;5038917;28;19913;-80
2022/12/31 09:02:43;;;;;;;;;;;18.50;99.90;;;;;;5056426;28;19955;-80
2022/12/31 09:05:28;;;;;;;;;;;18.50;99.90;;;;;;5056203;28;19913;-81
2022/12/31 09:08:03;;;;;;;;;;;18.50;99.90;;;;;;5070253;28;19962;-83
2022/12/31 09:10:30;;;;;;;;;;;18.60;99.90;;;;;;5058014;28;19913;-81
2022/12/31 09:13:11;;;;;;;;;;;18.60;99.90;;;;;;5057445;28;19951;-82
2022/12/31 09:15:46;;;;;;;;;;;18.60;99.90;;;;;;5096297;22;19969;-77
2022/12/31 09:18:12;;;;;;;;;;;18.50;99.90;;;;;;5043127;28;19975;-79
2022/12/31 09:20:37;;;;;;;;;;;18.60;99.90;;;;;;5071691;28;20373;-79
2022/12/31 09:23:03;;;;;;;;;;;18.60;99.90;;;;;;5068486;28;19909;-78
2022/12/31 09:25:29;;;;;;;;;;;18.70;99.90;;;;;;5073354;28;19962;-78
2022/12/31 09:28:04;;;;;;;;;;;18.70;99.90;;;;;;5057943;28;19916;-76
2022/12/31 09:30:33;;;;;;;;;;;18.70;99.90;;;;;;5065295;28;19909;-79
2022/12/31 09:33:07;;;;;;;;;;;18.70;99.90;;;;;;5077636;28;19909;-77
2022/12/31 09:35:36;;;;;;;;;;;18.80;99.90;;;;;;5072614;28;20366;-76
2022/12/31 09:38:25;;;;;;;;;;;18.70;99.90;;;;;;5057215;28;19976;-78
2022/12/31 09:41:09;;;;;;;;;;;18.70;99.90;;;;;;5061747;28;19934;-76
2022/12/31 09:43:53;;;;;;;;;;;18.60;99.90;;;;;;5058382;28;19909;-77
2022/12/31 09:46:27;;;;;;;;;;;18.60;99.90;;;;;;5073109;28;20251;-78
2022/12/31 09:48:56;;;;;;;;;;;18.70;99.90;;;;;;5074454;28;19908;-77
2022/12/31 09:51:29;;;;;;;;;;;18.80;99.90;;;;;;5074162;28;19909;-77
2022/12/31 09:54:10;;;;;;;;;;;18.70;99.90;;;;;;5074232;28;19913;-78
2022/12/31 09:56:46;;;;;;;;;;;18.60;99.90;;;;;;5074383;28;20277;-76
2022/12/31 09:59:25;;;;;;;;;;;18.60;99.90;;;;;;5074158;28;19912;-77
2022/12/31 10:02:18;;;;;;;;;;;18.60;99.90;;;;;;5073859;28;19908;-77
2022/12/31 10:04:44;;;;;;;;;;;18.60;99.90;;;;;;5073687;28;19958;-77
2022/12/31 10:07:09;;;;;;;;;;;18.60;99.90;;;;;;5073765;28;19912;-78
2022/12/31 10:09:41;;;;;;;;;;;18.60;99.90;;;;;;5073480;28;19908;-76
2022/12/31 10:12:25;;;;;;;;;;;18.60;99.90;;;;;;5073576;28;20285;-79
2022/12/31 10:15:09;;;;;;;;;;;18.50;99.90;;;;;;5073638;28;19912;-76
2022/12/31 10:17:41;;;;;;;;;;;18.50;99.90;;;;;;5073372;28;19916;-78
2022/12/31 10:20:21;;;;;;;;;;;18.50;99.90;;;;;;5073570;28;20391;-78
2022/12/31 10:22:52;;;;;;;;;;;18.60;99.90;;;;;;5073737;28;19915;-76
2022/12/31 10:25:34;;;;;;;;;;;18.60;99.90;;;;;;5072696;28;19915;-77
2022/12/31 10:28:04;;;;;;;;;;;18.70;99.90;;;;;;5051203;28;19952;-78
2022/12/31 10:30:32;;;;;;;;;;;18.80;99.90;;;;;;5058812;28;19916;-77
2022/12/31 10:33:06;;;;;;;;;;;18.70;99.90;;;;;;5058257;28;19932;-79
2022/12/31 10:35:50;;;;;;;;;;;18.80;99.90;;;;;;5059017;28;19911;-77
2022/12/31 10:38:28;;;;;;;;;;;19.00;99.90;;;;;;5058050;28;19909;-79
2022/12/31 10:40:54;;;;;;;;;;;19.00;99.90;;;;;;5073990;28;19920;-78
2022/12/31 10:43:38;;;;;;;;;;;19.00;99.90;;;;;;5057641;28;19913;-77
2022/12/31 10:46:21;;;;;;;;;;;19.00;99.90;;;;;;5070196;28;19913;-77
2022/12/31 10:48:47;;;;;;;;;;;18.90;99.90;;;;;;5052220;28;20393;-77
2022/12/31 10:51:17;;;;;;;;;;;18.90;99.90;;;;;;5074564;28;19943;-77
2022/12/31 10:53:51;;;;;;;;;;;19.00;99.90;;;;;;5057246;28;19935;-78
2022/12/31 10:56:23;;;;;;;;;;;18.90;99.90;;;;;;5062158;28;19954;-78
2022/12/31 10:58:54;;;;;;;;;;;19.00;99.90;;;;;;5059111;28;20361;-78
2022/12/31 11:01:29;;;;;;;;;;;19.10;99.90;;;;;;5059398;28;19913;-77
2022/12/31 11:03:54;;;;;;;;;;;19.00;99.90;;;;;;5058693;28;19909;-79
2022/12/31 11:06:49;;;;;;;;;;;19.10;99.90;;;;;;5075532;28;19916;-77
2022/12/31 11:09:28;;;;;;;;;;;19.10;99.90;;;;;;5054741;28;19984;-79
2022/12/31 11:11:57;;;;;;;;;;;19.10;99.90;;;;;;5058363;28;19909;-77
2022/12/31 11:14:28;;;;;;;;;;;19.10;99.90;;;;;;5072288;28;19947;-79
2022/12/31 11:17:06;;;;;;;;;;;19.00;99.90;;;;;;5059646;28;19917;-78
2022/12/31 11:19:34;;;;;;;;;;;19.00;99.90;;;;;;5066700;28;19909;-79
2022/12/31 11:22:32;;;;;;;;;;;19.00;99.90;;;;;;5066395;28;19940;-77
2022/12/31 11:25:12;;;;;;;;;;;19.10;99.90;;;;;;5042862;28;19964;-79
2022/12/31 11:27:49;;;;;;;;;;;19.30;99.90;;;;;;5065408;28;20321;-77
2022/12/31 11:30:27;;;;;;;;;;;19.40;99.90;;;;;;5066586;28;20335;-78
2022/12/31 11:33:02;;;;;;;;;;;19.40;99.90;;;;;;5064228;28;19912;-78
2022/12/31 11:35:53;;;;;;;;;;;19.50;99.90;;;;;;5052948;28;19913;-79
2022/12/31 11:38:31;;;;;;;;;;;19.50;99.90;;;;;;5043596;28;19909;-80
2022/12/31 11:41:18;;;;;;;;;;;19.30;99.90;;;;;;5043970;28;19952;-79
2022/12/31 11:43:59;;;;;;;;;;;19.20;99.90;;;;;;5044471;28;19909;-78
2022/12/31 11:46:35;;;;;;;;;;;19.00;99.90;;;;;;5043067;28;20477;-77
2022/12/31 11:49:10;;;;;;;;;;;18.90;99.90;;;;;;5042613;28;19916;-78
2022/12/31 11:51:49;;;;;;;;;;;18.90;99.90;;;;;;5059075;28;19913;-78
2022/12/31 11:54:18;;;;;;;;;;;18.90;99.90;;;;;;5040814;28;19921;-77
2022/12/31 11:56:46;;;;;;;;;;;18.90;99.90;;;;;;5054936;28;19913;-79
2022/12/31 11:59:13;;;;;;;;;;;18.90;99.90;;;;;;5037545;28;20117;-77
2022/12/31 12:01:56;;;;;;;;;;;18.90;99.90;;;;;;5036672;28;19913;-77
2022/12/31 12:04:21;;;;;;;;;;;19.00;99.90;;;;;;5037061;28;19975;-76
2022/12/31 12:06:47;;;;;;;;;;;19.00;99.90;;;;;;5036063;28;19908;-77
2022/12/31 12:09:27;;;;;;;;;;;19.00;99.90;;;;;;5036942;28;19909;-76
2022/12/31 12:12:04;;;;;;;;;;;19.00;99.90;;;;;;5036403;28;19955;-78
2022/12/31 12:14:31;;;;;;;;;;;19.00;99.90;;;;;;5055103;28;21009;-81
2022/12/31 12:16:56;;;;;;;;;;;19.00;99.90;;;;;;5060266;28;19917;-79
2022/12/31 12:19:23;;;;;;;;;;;19.10;99.90;;;;;;5077881;28;19933;-79
2022/12/31 12:21:49;;;;;;;;;;;19.10;99.90;;;;;;5074537;28;19920;-78
2022/12/31 12:24:19;;;;;;;;;;;19.10;99.90;;;;;;5061089;28;19909;-77
2022/12/31 12:26:45;;;;;;;;;;;19.20;99.90;;;;;;5055956;28;19915;-78
2022/12/31 12:29:14;;;;;;;;;;;19.20;99.90;;;;;;5070304;28;19908;-77
2022/12/31 12:31:39;;;;;;;;;;;19.20;99.90;;;;;;5067039;28;19916;-76
2022/12/31 12:34:05;;;;;;;;;;;19.10;99.90;;;;;;5052908;28;19913;-79
2022/12/31 12:36:31;;;;;;;;;;;19.10;99.90;;;;;;5058374;28;19952;-78
2022/12/31 12:39:01;;;;;;;;;;;19.10;99.90;;;;;;5076709;28;19916;-77
2022/12/31 12:41:26;;;;;;;;;;;19.10;99.90;;;;;;5055736;28;19972;-76
2022/12/31 12:44:02;;;;;;;;;;;19.20;99.90;;;;;;5060603;28;20003;-78
2022/12/31 12:46:32;;;;;;;;;;;19.10;99.90;;;;;;5076825;28;19996;-79
2022/12/31 12:48:58;;;;;;;;;;;19.10;99.90;;;;;;5056604;28;20530;-78
2022/12/31 12:51:32;;;;;;;;;;;19.10;99.90;;;;;;5054358;28;19952;-77
2022/12/31 12:54:05;;;;;;;;;;;19.10;99.90;;;;;;5061092;28;19954;-79
2022/12/31 12:56:41;;;;;;;;;;;19.10;99.90;;;;;;5072390;28;19908;-78
2022/12/31 12:59:26;;;;;;;;;;;19.10;99.90;;;;;;5056678;28;19909;-77
2022/12/31 13:01:51;;;;;;;;;;;19.00;99.90;;;;;;5070228;28;20347;-78
2022/12/31 13:04:35;;;;;;;;;;;18.80;99.90;;;;;;5070006;28;19995;-77
2022/12/31 13:07:08;;;;;;;;;;;18.60;99.90;;;;;;5054918;28;20298;-78
2022/12/31 13:09:40;;;;;;;;;;;18.60;99.90;;;;;;5069788;28;19993;-78
2022/12/31 13:12:06;;;;;;;;;;;18.50;99.90;;;;;;5054074;28;19909;-78
2022/12/31 13:14:52;;;;;;;;;;;18.40;99.90;;;;;;5054979;28;20298;-77
2022/12/31 13:17:33;;;;;;;;;;;18.10;99.90;;;;;;5054394;28;19924;-79
2022/12/31 13:20:17;;;;;;;;;;;17.50;99.90;;;;;;5069845;28;19913;-79
2022/12/31 13:22:59;;;;;;;;;;;17.10;99.90;;;;;;5054972;28;19909;-76
2022/12/31 13:25:37;;;;;;;;;;;16.70;99.90;;;;;;5053986;28;19948;-77
2022/12/31 13:28:05;;;;;;;;;;;16.50;99.90;;;;;;5054166;28;19909;-77
2022/12/31 13:30:39;;;;;;;;;;;16.40;99.90;;;;;;5053663;28;19909;-78
2022/12/31 13:33:24;;;;;;;;;;;16.40;99.90;;;;;;5069810;28;20397;-78
2022/12/31 13:35:55;;;;;;;;;;;16.20;99.90;;;;;;5070715;28;19932;-80
2022/12/31 13:38:41;;;;;;;;;;;16.00;99.90;;;;;;5051688;28;19913;-77
2022/12/31 13:41:15;;;;;;;;;;;15.70;99.90;;;;;;5054952;28;19980;-79
2022/12/31 13:43:55;;;;;;;;;;;15.50;99.90;;;;;;5043815;28;20015;-79
2022/12/31 13:46:24;;;;;;;;;;;15.40;99.90;;;;;;5056139;28;20277;-79
2022/12/31 13:48:52;;;;;;;;;;;15.30;99.90;;;;;;5059581;28;19916;-78
2022/12/31 13:51:22;;;;;;;;;;;15.30;99.90;;;;;;5060766;28;20318;-79
2022/12/31 13:53:52;;;;;;;;;;;15.20;99.90;;;;;;5075760;28;19912;-77
2022/12/31 13:56:23;;;;;;;;;;;15.10;99.90;;;;;;5073147;28;19913;-79
2022/12/31 13:58:52;;;;;;;;;;;15.10;99.90;;;;;;5059189;28;20294;-78
2022/12/31 14:01:20;;;;;;;;;;;15.10;99.90;;;;;;5057925;28;20072;-79
2022/12/31 14:04:01;;;;;;;;;;;15.20;99.90;;;;;;5059383;28;19912;-79
2022/12/31 14:06:30;;;;;;;;;;;15.10;99.90;;;;;;5059245;28;19909;-81
2022/12/31 14:08:55;;;;;;;;;;;15.10;99.90;;;;;;5073995;28;20004;-78
2022/12/31 14:11:24;;;;;;;;;;;15.10;99.90;;;;;;5058294;28;19959;-79
2022/12/31 14:13:55;;;;;;;;;;;15.20;99.90;;;;;;5058248;28;20584;-81
2022/12/31 14:16:31;;;;;;;;;;;15.20;99.90;;;;;;5055121;28;19916;-78
2022/12/31 14:18:57;;;;;;;;;;;15.30;99.90;;;;;;5069263;28;19916;-79
2022/12/31 14:21:26;;;;;;;;;;;15.40;99.90;;;;;;5053615;28;19913;-81
2022/12/31 14:24:00;;;;;;;;;;;15.60;99.90;;;;;;5054134;28;19913;-81
2022/12/31 14:26:34;;;;;;;;;;;15.60;99.90;;;;;;5053938;28;19908;-79
2022/12/31 14:28:59;;;;;;;;;;;15.70;99.90;;;;;;5054916;28;19946;-78
2022/12/31 14:31:43;;;;;;;;;;;15.80;99.90;;;;;;5054342;28;19916;-79
2022/12/31 14:34:29;;;;;;;;;;;15.90;99.90;;;;;;5053416;28;19931;-79
2022/12/31 14:37:03;;;;;;;;;;;16.00;99.90;;;;;;5049958;28;20304;-79
2022/12/31 14:39:29;;;;;;;;;;;16.00;99.90;;;;;;5054499;28;19908;-79
2022/12/31 14:42:13;;;;;;;;;;;16.00;99.90;;;;;;5069654;28;19909;-79
2022/12/31 14:44:45;;;;;;;;;;;16.00;99.90;;;;;;5071947;28;19909;-80
2022/12/31 14:47:29;;;;;;;;;;;16.00;99.90;;;;;;5056513;28;19909;-78
2022/12/31 14:50:10;;;;;;;;;;;16.00;99.90;;;;;;5056712;28;19912;-77